Time;durP1;ratioP1;P1;durP2;ratioP2;P2;SDS_P1;SDS_P2;PMS_P1;PMS_P2;Temp;Humidity;BMP_temperature;BMP_pressure;BME280_temperature;BME280_humidity;BME280_pressure;Samples;Min_cycle;Max_cycle;Signal;HPM_P1;HPM_P2
2022/09/18 00:00:00;;;;;;;;;;;6.90;99.90;;;;;;5044170;28;19920;-82
2022/09/18 00:02:26;;;;;;;;;;;6.80;99.90;;;;;;5038827;28;20004;-82
2022/09/18 00:04:52;;;;;;;;;;;6.80;99.90;;;;;;5042056;28;19916;-82
2022/09/18 00:07:18;;;;;;;;;;;6.80;99.90;;;;;;5045936;28;20015;-81
2022/09/18 00:09:44;;;;;;;;;;;6.80;99.90;;;;;;5040635;28;20436;-82
2022/09/18 00:12:09;;;;;;;;;;;6.90;99.90;;;;;;5047013;28;20007;-82
2022/09/18 00:14:35;;;;;;;;;;;6.90;99.90;;;;;;5044507;28;19912;-82
2022/09/18 00:17:01;;;;;;;;;;;7.00;99.90;;;;;;5035443;28;20024;-82
2022/09/18 00:19:27;;;;;;;;;;;7.00;99.90;;;;;;5041758;28;19916;-82
2022/09/18 00:21:53;;;;;;;;;;;7.00;99.90;;;;;;5049210;28;19916;-82
2022/09/18 00:24:18;;;;;;;;;;;7.10;99.90;;;;;;5048756;28;20395;-82
2022/09/18 00:26:45;;;;;;;;;;;7.10;99.90;;;;;;5060921;28;20330;-81
2022/09/18 00:29:11;;;;;;;;;;;7.10;99.90;;;;;;5044049;28;19916;-81
2022/09/18 00:31:37;;;;;;;;;;;7.20;99.90;;;;;;5039179;28;19967;-81
2022/09/18 00:34:04;;;;;;;;;;;7.20;99.90;;;;;;5029019;28;19912;-81
2022/09/18 00:36:30;;;;;;;;;;;7.20;99.90;;;;;;5024479;28;20028;-81
2022/09/18 00:38:58;;;;;;;;;;;7.30;99.90;;;;;;5028510;28;19913;-81
2022/09/18 00:41:27;;;;;;;;;;;7.30;99.90;;;;;;5023973;28;20009;-81
2022/09/18 00:43:55;;;;;;;;;;;7.30;99.90;;;;;;5046150;28;20528;-81
2022/09/18 00:46:25;;;;;;;;;;;7.30;99.90;;;;;;5037122;28;19967;-82
2022/09/18 00:49:01;;;;;;;;;;;7.30;99.90;;;;;;5027597;28;19916;-81
2022/09/18 00:51:29;;;;;;;;;;;7.30;99.90;;;;;;5045430;28;20400;-82
2022/09/18 00:53:58;;;;;;;;;;;7.40;99.90;;;;;;5021741;28;19913;-82
2022/09/18 00:56:24;;;;;;;;;;;7.40;99.90;;;;;;5026021;28;19919;-82
2022/09/18 00:58:50;;;;;;;;;;;7.40;99.90;;;;;;5045492;28;19972;-81
2022/09/18 01:01:16;;;;;;;;;;;7.40;99.90;;;;;;5034184;28;19921;-82
2022/09/18 01:03:41;;;;;;;;;;;7.40;99.90;;;;;;5044540;28;20454;-81
2022/09/18 01:06:14;;;;;;;;;;;7.30;99.90;;;;;;5048519;28;19936;-81
2022/09/18 01:08:45;;;;;;;;;;;7.40;99.90;;;;;;5040212;28;19912;-81
2022/09/18 01:11:16;;;;;;;;;;;7.40;99.90;;;;;;5051467;28;19978;-81
2022/09/18 01:14:11;;;;;;;;;;;7.40;99.90;;;;;;5046706;28;19925;-81
2022/09/18 01:16:58;;;;;;;;;;;7.40;99.90;;;;;;5037764;28;20364;-82
2022/09/18 01:19:33;;;;;;;;;;;7.40;99.90;;;;;;5047759;28;19909;-81
2022/09/18 01:22:15;;;;;;;;;;;7.40;99.90;;;;;;5048227;28;20014;-81
2022/09/18 01:24:40;;;;;;;;;;;7.40;99.90;;;;;;5049189;28;20000;-81
2022/09/18 01:27:08;;;;;;;;;;;7.40;99.90;;;;;;5045636;28;20007;-82
2022/09/18 01:29:39;;;;;;;;;;;7.40;99.90;;;;;;5041253;28;19971;-81
2022/09/18 01:32:12;;;;;;;;;;;7.40;99.90;;;;;;5048113;28;19912;-81
2022/09/18 01:35:04;;;;;;;;;;;7.40;99.90;;;;;;5044777;28;19912;-80
2022/09/18 01:37:36;;;;;;;;;;;7.40;99.90;;;;;;5010301;28;19999;-81
2022/09/18 01:40:10;;;;;;;;;;;7.40;99.90;;;;;;5045555;28;20446;-81
2022/09/18 01:42:37;;;;;;;;;;;7.40;99.90;;;;;;5049711;28;19917;-81
2022/09/18 01:45:10;;;;;;;;;;;7.40;99.90;;;;;;5046337;28;20008;-81
2022/09/18 01:47:40;;;;;;;;;;;7.40;99.90;;;;;;5042450;28;19908;-81
2022/09/18 01:50:07;;;;;;;;;;;7.50;99.90;;;;;;5043259;28;19952;-81
2022/09/18 01:52:38;;;;;;;;;;;7.40;99.90;;;;;;5043265;28;19924;-81
2022/09/18 01:55:05;;;;;;;;;;;7.50;99.90;;;;;;5042086;28;19942;-81
2022/09/18 01:57:43;;;;;;;;;;;7.40;99.90;;;;;;5049181;28;19920;-81
2022/09/18 02:00:10;;;;;;;;;;;7.40;99.90;;;;;;5045785;28;19959;-81
2022/09/18 02:02:40;;;;;;;;;;;7.50;99.90;;;;;;5036919;28;19971;-81
2022/09/18 02:05:07;;;;;;;;;;;7.50;99.90;;;;;;5041735;28;20403;-81
2022/09/18 02:07:35;;;;;;;;;;;7.50;99.90;;;;;;5050265;28;19913;-81
2022/09/18 02:10:02;;;;;;;;;;;7.50;99.90;;;;;;5046026;28;20297;-81
2022/09/18 02:12:28;;;;;;;;;;;7.50;99.90;;;;;;5056754;28;19908;-80
2022/09/18 02:14:56;;;;;;;;;;;7.50;99.90;;;;;;5071470;28;19913;-81
2022/09/18 02:17:25;;;;;;;;;;;7.40;99.90;;;;;;5039685;28;19927;-82
2022/09/18 02:19:53;;;;;;;;;;;7.40;99.90;;;;;;5050974;28;19921;-81
2022/09/18 02:22:20;;;;;;;;;;;7.40;99.90;;;;;;5042733;28;19913;-80
2022/09/18 02:24:47;;;;;;;;;;;7.40;99.90;;;;;;5049400;28;20011;-80
2022/09/18 02:27:14;;;;;;;;;;;7.40;99.90;;;;;;5043742;28;19974;-80
2022/09/18 02:29:41;;;;;;;;;;;7.40;99.90;;;;;;5045827;28;19947;-80
2022/09/18 02:32:07;;;;;;;;;;;7.40;99.90;;;;;;5044436;28;19913;-81
2022/09/18 02:34:33;;;;;;;;;;;7.40;99.90;;;;;;5044285;28;19947;-81
2022/09/18 02:37:07;;;;;;;;;;;7.40;99.90;;;;;;5049404;28;19913;-80
2022/09/18 02:39:39;;;;;;;;;;;7.40;99.90;;;;;;5048144;28;19909;-80
2022/09/18 02:42:17;;;;;;;;;;;7.40;99.90;;;;;;5036611;28;19976;-80
2022/09/18 02:45:01;;;;;;;;;;;7.40;99.90;;;;;;5041058;28;19917;-82
2022/09/18 02:47:29;;;;;;;;;;;7.40;99.90;;;;;;5041614;28;19947;-81
2022/09/18 02:49:55;;;;;;;;;;;7.40;99.90;;;;;;5048133;28;19908;-81
2022/09/18 02:52:41;;;;;;;;;;;7.30;99.90;;;;;;5036718;28;19967;-81
2022/09/18 02:55:10;;;;;;;;;;;7.40;99.90;;;;;;5046273;28;19925;-81
2022/09/18 02:57:37;;;;;;;;;;;7.40;99.90;;;;;;5044437;28;19912;-82
2022/09/18 03:00:03;;;;;;;;;;;7.40;99.90;;;;;;5045205;28;19913;-81
2022/09/18 03:02:29;;;;;;;;;;;7.40;99.90;;;;;;5046037;28;20011;-82
2022/09/18 03:04:55;;;;;;;;;;;7.30;99.90;;;;;;5045801;28;19995;-81
2022/09/18 03:07:21;;;;;;;;;;;7.30;99.90;;;;;;5056780;28;19921;-82
2022/09/18 03:09:47;;;;;;;;;;;7.30;99.90;;;;;;5053970;28;19920;-82
2022/09/18 03:12:13;;;;;;;;;;;7.40;99.90;;;;;;5055102;28;19924;-82
2022/09/18 03:14:38;;;;;;;;;;;7.40;99.90;;;;;;5046949;28;20395;-81
2022/09/18 03:17:04;;;;;;;;;;;7.40;99.90;;;;;;5021062;28;20438;-82
2022/09/18 03:19:29;;;;;;;;;;;7.40;99.90;;;;;;5048250;28;20055;-82
2022/09/18 03:21:55;;;;;;;;;;;7.30;99.90;;;;;;5029706;28;19921;-82
2022/09/18 03:24:20;;;;;;;;;;;7.40;99.90;;;;;;5052104;28;19921;-82
2022/09/18 03:26:46;;;;;;;;;;;7.30;99.90;;;;;;5052211;28;19908;-82
2022/09/18 03:29:13;;;;;;;;;;;7.40;99.90;;;;;;5046365;28;19913;-82
2022/09/18 03:31:39;;;;;;;;;;;7.40;99.90;;;;;;5042073;28;19912;-81
2022/09/18 03:34:04;;;;;;;;;;;7.50;99.90;;;;;;5043590;28;19943;-82
2022/09/18 03:36:30;;;;;;;;;;;7.40;99.90;;;;;;5051399;28;19988;-82
2022/09/18 03:38:56;;;;;;;;;;;7.40;99.90;;;;;;5052144;28;19928;-82
2022/09/18 03:41:21;;;;;;;;;;;7.40;99.90;;;;;;5050469;28;19933;-82
2022/09/18 03:43:47;;;;;;;;;;;7.40;99.90;;;;;;5054355;28;20007;-82
2022/09/18 03:46:13;;;;;;;;;;;7.40;99.90;;;;;;5039132;28;19927;-83
2022/09/18 03:48:39;;;;;;;;;;;7.40;99.90;;;;;;5056126;28;19919;-82
2022/09/18 03:51:04;;;;;;;;;;;7.50;99.90;;;;;;5042324;28;19913;-82
2022/09/18 03:53:30;;;;;;;;;;;7.40;99.90;;;;;;5056076;28;20368;-82
2022/09/18 03:55:56;;;;;;;;;;;7.40;99.90;;;;;;5043338;28;19913;-82
2022/09/18 03:58:21;;;;;;;;;;;7.40;99.90;;;;;;5034780;28;20380;-82
2022/09/18 04:00:47;;;;;;;;;;;7.40;99.90;;;;;;5040946;28;19944;-82
2022/09/18 04:03:13;;;;;;;;;;;7.50;99.90;;;;;;5049021;28;19923;-82
2022/09/18 04:05:38;;;;;;;;;;;7.50;99.90;;;;;;5054682;28;19916;-82
2022/09/18 04:08:04;;;;;;;;;;;7.50;99.90;;;;;;5038648;28;19952;-82
2022/09/18 04:10:30;;;;;;;;;;;7.50;99.90;;;;;;5053755;28;20007;-82
2022/09/18 04:12:56;;;;;;;;;;;7.50;99.90;;;;;;5048337;28;19962;-82
2022/09/18 04:15:21;;;;;;;;;;;7.50;99.90;;;;;;5039464;28;20366;-83
2022/09/18 04:17:47;;;;;;;;;;;7.50;99.90;;;;;;5034292;28;19913;-82
2022/09/18 04:20:13;;;;;;;;;;;7.50;99.90;;;;;;5052038;28;19920;-82
2022/09/18 04:22:38;;;;;;;;;;;7.50;99.90;;;;;;5048856;28;19944;-82
2022/09/18 04:25:04;;;;;;;;;;;7.50;99.90;;;;;;5040781;28;19919;-82
2022/09/18 04:27:29;;;;;;;;;;;7.50;99.90;;;;;;5044794;28;20423;-82
2022/09/18 04:29:55;;;;;;;;;;;7.50;99.90;;;;;;5046878;28;19954;-82
2022/09/18 04:32:20;;;;;;;;;;;7.50;99.90;;;;;;5041813;28;20360;-82
2022/09/18 04:34:46;;;;;;;;;;;7.50;99.90;;;;;;5048297;28;19974;-83
2022/09/18 04:37:11;;;;;;;;;;;7.50;99.90;;;;;;5043661;28;20415;-82
2022/09/18 04:39:37;;;;;;;;;;;7.50;99.90;;;;;;5046188;28;19917;-82
2022/09/18 04:42:03;;;;;;;;;;;7.50;99.90;;;;;;5047163;28;19924;-82
2022/09/18 04:44:28;;;;;;;;;;;7.40;99.90;;;;;;5021998;28;19966;-82
2022/09/18 04:46:54;;;;;;;;;;;7.50;99.90;;;;;;5035172;28;19916;-82
2022/09/18 04:49:20;;;;;;;;;;;7.50;99.90;;;;;;5045932;28;19917;-82
2022/09/18 04:51:45;;;;;;;;;;;7.50;99.90;;;;;;5043671;28;20337;-81
2022/09/18 04:54:11;;;;;;;;;;;7.60;99.90;;;;;;5040688;28;19952;-82
2022/09/18 04:56:36;;;;;;;;;;;7.60;99.90;;;;;;5038056;28;19948;-82
2022/09/18 04:59:02;;;;;;;;;;;7.60;99.90;;;;;;5038841;28;19925;-82
2022/09/18 05:01:28;;;;;;;;;;;7.60;99.90;;;;;;5049806;28;19912;-82
2022/09/18 05:03:53;;;;;;;;;;;7.60;99.90;;;;;;5046953;28;19944;-82
2022/09/18 05:06:23;;;;;;;;;;;7.60;99.90;;;;;;5033513;28;19924;-82
2022/09/18 05:08:48;;;;;;;;;;;7.70;99.90;;;;;;5046797;28;19897;-82
2022/09/18 05:11:14;;;;;;;;;;;7.70;99.90;;;;;;5061324;28;20007;-82
2022/09/18 05:13:39;;;;;;;;;;;7.70;99.90;;;;;;5047007;28;20303;-81
2022/09/18 05:16:05;;;;;;;;;;;7.70;99.90;;;;;;5031018;28;19913;-82
2022/09/18 05:18:30;;;;;;;;;;;7.70;99.90;;;;;;5045061;28;19943;-82
2022/09/18 05:21:00;;;;;;;;;;;7.80;99.90;;;;;;5046335;28;20398;-82
2022/09/18 05:23:25;;;;;;;;;;;7.80;99.90;;;;;;5045628;28;19919;-82
2022/09/18 05:25:53;;;;;;;;;;;7.80;99.90;;;;;;5040308;28;19916;-82
2022/09/18 05:28:18;;;;;;;;;;;7.70;99.90;;;;;;5045003;28;19916;-82
2022/09/18 05:30:44;;;;;;;;;;;7.70;99.90;;;;;;5040380;28;19913;-82
2022/09/18 05:33:10;;;;;;;;;;;7.70;99.90;;;;;;5047998;28;20341;-82
2022/09/18 05:35:37;;;;;;;;;;;7.70;99.90;;;;;;5044956;28;19913;-82
2022/09/18 05:38:03;;;;;;;;;;;7.70;99.90;;;;;;5034114;28;20008;-82
2022/09/18 05:40:31;;;;;;;;;;;7.70;99.90;;;;;;5040649;28;20617;-82
2022/09/18 05:42:57;;;;;;;;;;;7.70;99.90;;;;;;5042505;28;20011;-82
2022/09/18 05:45:22;;;;;;;;;;;7.70;99.90;;;;;;5047210;28;20358;-82
2022/09/18 05:47:52;;;;;;;;;;;7.80;99.90;;;;;;5034524;28;19970;-82
2022/09/18 05:50:18;;;;;;;;;;;7.80;99.90;;;;;;5050798;28;19970;-82
2022/09/18 05:52:43;;;;;;;;;;;7.80;99.90;;;;;;5039083;28;19913;-82
2022/09/18 05:55:09;;;;;;;;;;;7.70;99.90;;;;;;5048192;28;20361;-82
2022/09/18 05:57:34;;;;;;;;;;;7.80;99.90;;;;;;5046235;28;20548;-82
2022/09/18 06:00:00;;;;;;;;;;;7.80;99.90;;;;;;5032258;28;19913;-82
2022/09/18 06:02:25;;;;;;;;;;;7.80;99.90;;;;;;5040555;28;19916;-82
2022/09/18 06:04:51;;;;;;;;;;;7.80;99.90;;;;;;5042009;28;19913;-82
2022/09/18 06:07:20;;;;;;;;;;;7.80;99.90;;;;;;5034389;28;19919;-82
2022/09/18 06:09:45;;;;;;;;;;;7.80;99.90;;;;;;5038677;28;19913;-82
2022/09/18 06:12:11;;;;;;;;;;;7.80;99.90;;;;;;5058869;28;19920;-82
2022/09/18 06:14:39;;;;;;;;;;;7.90;99.90;;;;;;5038149;28;19947;-82
2022/09/18 06:17:05;;;;;;;;;;;7.90;99.90;;;;;;5039225;28;20381;-82
2022/09/18 06:19:31;;;;;;;;;;;8.00;99.90;;;;;;5040687;28;19924;-82
2022/09/18 06:21:57;;;;;;;;;;;8.00;99.90;;;;;;5034400;28;20292;-82
2022/09/18 06:24:22;;;;;;;;;;;8.00;99.90;;;;;;5054373;28;19928;-82
2022/09/18 06:26:48;;;;;;;;;;;8.10;99.90;;;;;;5048584;28;20004;-82
2022/09/18 06:29:14;;;;;;;;;;;8.20;99.90;;;;;;5049880;28;19999;-81
2022/09/18 06:31:40;;;;;;;;;;;8.20;99.90;;;;;;5044529;28;20011;-81
2022/09/18 06:34:07;;;;;;;;;;;8.20;99.90;;;;;;5048428;28;19912;-81
2022/09/18 06:36:33;;;;;;;;;;;8.20;99.90;;;;;;5046314;28;20042;-81
2022/09/18 06:38:58;;;;;;;;;;;8.40;99.90;;;;;;5047945;28;20455;-82
2022/09/18 06:41:24;;;;;;;;;;;8.50;99.90;;;;;;5033560;28;20388;-81
2022/09/18 06:43:50;;;;;;;;;;;8.40;99.90;;;;;;5033799;28;19913;-81
2022/09/18 06:46:15;;;;;;;;;;;8.40;99.90;;;;;;5047875;28;19913;-81
2022/09/18 06:48:41;;;;;;;;;;;8.40;99.90;;;;;;5040510;28;20487;-82
2022/09/18 06:51:08;;;;;;;;;;;8.50;99.90;;;;;;5044224;28;19916;-81
2022/09/18 06:53:34;;;;;;;;;;;8.60;99.90;;;;;;5042805;28;19913;-81
2022/09/18 06:56:01;;;;;;;;;;;8.70;99.90;;;;;;5043381;28;19920;-81
2022/09/18 06:58:26;;;;;;;;;;;8.70;99.90;;;;;;5040195;28;19917;-81
2022/09/18 07:00:53;;;;;;;;;;;8.70;99.90;;;;;;5047684;28;19916;-81
2022/09/18 07:03:18;;;;;;;;;;;8.70;99.90;;;;;;5046673;28;19913;-82
2022/09/18 07:05:44;;;;;;;;;;;8.70;99.90;;;;;;5039550;28;19917;-81
2022/09/18 07:08:10;;;;;;;;;;;8.80;99.90;;;;;;5034936;28;19949;-81
2022/09/18 07:10:36;;;;;;;;;;;8.80;99.90;;;;;;5048395;28;20002;-81
2022/09/18 07:13:02;;;;;;;;;;;8.90;99.90;;;;;;5048308;28;20054;-81
2022/09/18 07:15:27;;;;;;;;;;;8.90;99.90;;;;;;5032675;28;19923;-81
2022/09/18 07:17:56;;;;;;;;;;;9.00;99.90;;;;;;5039091;28;19921;-81
2022/09/18 07:20:25;;;;;;;;;;;9.00;99.90;;;;;;5044968;28;19917;-81
2022/09/18 07:22:56;;;;;;;;;;;9.00;99.90;;;;;;5019396;28;20452;-81
2022/09/18 07:25:21;;;;;;;;;;;9.00;99.90;;;;;;5044246;28;20003;-82
2022/09/18 07:27:47;;;;;;;;;;;9.00;99.90;;;;;;5044009;28;20047;-87
2022/09/18 07:30:20;;;;;;;;;;;9.10;99.90;;;;;;5045589;28;20080;-80
2022/09/18 07:32:46;;;;;;;;;;;9.10;99.90;;;;;;5045626;28;20052;-79
2022/09/18 07:35:12;;;;;;;;;;;9.20;99.90;;;;;;5044787;28;19924;-80
2022/09/18 07:37:37;;;;;;;;;;;9.20;99.90;;;;;;5048947;28;20295;-79
2022/09/18 07:40:04;;;;;;;;;;;9.40;99.90;;;;;;5047197;28;19915;-80
2022/09/18 07:42:29;;;;;;;;;;;9.50;99.90;;;;;;5041331;28;19921;-80
2022/09/18 07:44:54;;;;;;;;;;;9.50;99.90;;;;;;5047199;28;19913;-80
2022/09/18 07:47:20;;;;;;;;;;;9.60;99.90;;;;;;5035680;28;19917;-79
2022/09/18 07:49:45;;;;;;;;;;;9.60;99.90;;;;;;5048441;28;19917;-80
2022/09/18 07:52:11;;;;;;;;;;;9.40;99.90;;;;;;5045254;28;19952;-80
2022/09/18 07:54:37;;;;;;;;;;;9.60;99.90;;;;;;5037270;28;19924;-80
2022/09/18 07:57:03;;;;;;;;;;;9.60;99.90;;;;;;5042538;28;19921;-81
2022/09/18 07:59:28;;;;;;;;;;;9.80;99.90;;;;;;5042445;28;19920;-82
2022/09/18 08:01:54;;;;;;;;;;;9.80;99.90;;;;;;5050801;28;19968;-82
2022/09/18 08:04:22;;;;;;;;;;;9.90;99.90;;;;;;5056231;28;19966;-81
2022/09/18 08:06:56;;;;;;;;;;;10.10;99.90;;;;;;5031982;28;19913;-82
2022/09/18 08:09:22;;;;;;;;;;;10.30;99.90;;;;;;5045641;28;20424;-82
2022/09/18 08:11:50;;;;;;;;;;;10.30;99.90;;;;;;5044813;28;19971;-82
2022/09/18 08:14:15;;;;;;;;;;;10.40;99.90;;;;;;5052865;28;19956;-82
2022/09/18 08:16:41;;;;;;;;;;;10.50;99.90;;;;;;5049155;28;19948;-82
2022/09/18 08:19:07;;;;;;;;;;;10.40;99.90;;;;;;5041620;28;19921;-82
2022/09/18 08:21:32;;;;;;;;;;;10.50;99.90;;;;;;5052552;28;19963;-82
2022/09/18 08:23:58;;;;;;;;;;;10.40;99.90;;;;;;5052067;28;19916;-81
2022/09/18 08:26:23;;;;;;;;;;;10.50;99.90;;;;;;5043632;28;19920;-81
2022/09/18 08:28:49;;;;;;;;;;;10.80;99.90;;;;;;5045682;28;19920;-81
2022/09/18 08:31:14;;;;;;;;;;;11.10;99.90;;;;;;5043745;28;20372;-82
2022/09/18 08:33:40;;;;;;;;;;;11.10;99.90;;;;;;5051231;28;19963;-82
2022/09/18 08:36:05;;;;;;;;;;;11.10;99.90;;;;;;5048965;28;19967;-81
2022/09/18 08:38:31;;;;;;;;;;;11.20;99.90;;;;;;5036445;28;19948;-82
2022/09/18 08:41:17;;;;;;;;;;;11.10;99.90;;;;;;5035698;28;20459;-82
2022/09/18 08:43:42;;;;;;;;;;;11.20;99.90;;;;;;5030019;28;19978;-80
2022/09/18 08:46:11;;;;;;;;;;;11.50;99.90;;;;;;5050374;28;20364;-80
2022/09/18 08:48:38;;;;;;;;;;;11.50;99.90;;;;;;5041018;28;19908;-80
2022/09/18 08:51:21;;;;;;;;;;;11.60;99.90;;;;;;5037742;28;19942;-80
2022/09/18 08:53:48;;;;;;;;;;;11.60;99.90;;;;;;5033448;28;19917;-80
2022/09/18 08:56:15;;;;;;;;;;;11.80;99.90;;;;;;5037598;28;19917;-80
2022/09/18 08:59:07;;;;;;;;;;;12.10;99.90;;;;;;5039271;28;19928;-80
2022/09/18 09:01:59;;;;;;;;;;;12.10;99.90;;;;;;5035470;28;19917;-80
2022/09/18 09:04:27;;;;;;;;;;;11.90;99.90;;;;;;5037465;28;19924;-79
2022/09/18 09:06:52;;;;;;;;;;;12.10;99.90;;;;;;5041913;28;20580;-80
2022/09/18 09:09:24;;;;;;;;;;;12.00;98.80;;;;;;5037145;28;19920;-79
2022/09/18 09:11:50;;;;;;;;;;;12.50;99.90;;;;;;5034352;28;19948;-80
2022/09/18 09:14:21;;;;;;;;;;;12.70;97.80;;;;;;5033715;28;19998;-79
2022/09/18 09:16:50;;;;;;;;;;;12.70;99.90;;;;;;5045004;28;19912;-80
2022/09/18 09:19:21;;;;;;;;;;;12.90;98.90;;;;;;5038627;28;19913;-80
2022/09/18 09:22:06;;;;;;;;;;;12.90;99.90;;;;;;5045897;28;19909;-82
2022/09/18 09:24:47;;;;;;;;;;;12.80;97.20;;;;;;5041012;28;20702;-80
2022/09/18 09:27:18;;;;;;;;;;;13.20;97.00;;;;;;5050145;28;20003;-80
2022/09/18 09:29:45;;;;;;;;;;;12.90;97.30;;;;;;5043754;28;19940;-79
2022/09/18 09:32:16;;;;;;;;;;;12.70;96.50;;;;;;5045598;28;20433;-81
2022/09/18 09:34:48;;;;;;;;;;;12.60;96.60;;;;;;5040901;28;19951;-79
2022/09/18 09:37:17;;;;;;;;;;;12.60;96.40;;;;;;5045739;28;19920;-79
2022/09/18 09:39:45;;;;;;;;;;;12.30;97.00;;;;;;5042347;28;19960;-79
2022/09/18 09:42:14;;;;;;;;;;;12.40;99.40;;;;;;5046561;28;20015;-80
2022/09/18 09:44:42;;;;;;;;;;;12.10;98.20;;;;;;5050241;28;19990;-79
2022/09/18 09:47:14;;;;;;;;;;;11.90;98.80;;;;;;5043558;28;19913;-80
2022/09/18 09:49:58;;;;;;;;;;;11.70;99.90;;;;;;5044194;28;20355;-80
2022/09/18 09:52:25;;;;;;;;;;;11.60;99.90;;;;;;5050280;28;20404;-80
2022/09/18 09:54:54;;;;;;;;;;;11.40;99.90;;;;;;5044209;28;19917;-79
2022/09/18 09:57:32;;;;;;;;;;;11.40;99.90;;;;;;5047182;28;19991;-79
2022/09/18 09:59:58;;;;;;;;;;;11.40;99.90;;;;;;5050364;28;19912;-79
2022/09/18 10:02:39;;;;;;;;;;;11.20;99.90;;;;;;5044365;28;19913;-80
2022/09/18 10:05:31;;;;;;;;;;;11.30;99.90;;;;;;5040611;28;20008;-81
2022/09/18 10:08:07;;;;;;;;;;;11.40;99.90;;;;;;5033443;28;19951;-80
2022/09/18 10:10:32;;;;;;;;;;;11.60;99.90;;;;;;5048169;28;19919;-79
2022/09/18 10:13:04;;;;;;;;;;;11.40;99.90;;;;;;5049010;28;19909;-80
2022/09/18 10:15:40;;;;;;;;;;;11.60;99.90;;;;;;5041421;28;19966;-80
2022/09/18 10:18:13;;;;;;;;;;;11.60;99.90;;;;;;5028227;28;19921;-79
2022/09/18 10:20:39;;;;;;;;;;;11.80;99.90;;;;;;5032268;28;19920;-79
2022/09/18 10:23:12;;;;;;;;;;;12.00;99.70;;;;;;5034161;28;19913;-83
2022/09/18 10:25:40;;;;;;;;;;;12.10;99.90;;;;;;5032630;28;19980;-86
2022/09/18 10:28:10;;;;;;;;;;;12.00;99.90;;;;;;5036569;28;19913;-81
2022/09/18 10:30:50;;;;;;;;;;;11.70;99.90;;;;;;5023505;28;19917;-81
2022/09/18 10:33:31;;;;;;;;;;;12.00;99.90;;;;;;5015333;28;20026;-82
2022/09/18 10:36:01;;;;;;;;;;;11.90;99.90;;;;;;5037911;28;19975;-82
2022/09/18 10:38:29;;;;;;;;;;;11.90;99.90;;;;;;5015570;28;19913;-85
2022/09/18 10:40:54;;;;;;;;;;;11.80;99.20;;;;;;5020611;28;19928;-80
2022/09/18 10:43:20;;;;;;;;;;;11.70;99.90;;;;;;5014394;28;19918;-79
2022/09/18 10:45:50;;;;;;;;;;;11.40;98.90;;;;;;5022696;28;19948;-81
2022/09/18 10:48:18;;;;;;;;;;;11.30;99.90;;;;;;5026361;28;19916;-82
2022/09/18 10:50:51;;;;;;;;;;;11.40;99.90;;;;;;5025783;28;20359;-82
2022/09/18 10:53:22;;;;;;;;;;;11.50;99.90;;;;;;5020960;28;19914;-81
2022/09/18 10:55:49;;;;;;;;;;;11.70;99.90;;;;;;5034363;28;19912;-81
2022/09/18 10:58:15;;;;;;;;;;;11.60;99.90;;;;;;5021311;28;20276;-81
2022/09/18 11:00:44;;;;;;;;;;;11.70;99.40;;;;;;5021962;28;20429;-86
2022/09/18 11:03:16;;;;;;;;;;;11.60;99.90;;;;;;5035059;28;19917;-86
2022/09/18 11:05:48;;;;;;;;;;;11.60;99.90;;;;;;5035652;28;20287;-85
2022/09/18 11:08:14;;;;;;;;;;;11.70;99.90;;;;;;5044860;28;20288;-84
2022/09/18 11:10:45;;;;;;;;;;;11.80;99.30;;;;;;5044349;28;20339;-84
2022/09/18 11:13:18;;;;;;;;;;;11.90;98.70;;;;;;5038389;28;19938;-84
2022/09/18 11:15:49;;;;;;;;;;;12.00;97.90;;;;;;5046056;28;20386;-84
2022/09/18 11:18:15;;;;;;;;;;;11.80;99.00;;;;;;5037748;28;19917;-84
2022/09/18 11:20:42;;;;;;;;;;;11.90;97.60;;;;;;5045760;28;20274;-84
2022/09/18 11:23:14;;;;;;;;;;;11.90;98.40;;;;;;5042807;28;20431;-84
2022/09/18 11:25:40;;;;;;;;;;;12.00;97.00;;;;;;5062302;28;20007;-85
2022/09/18 11:28:25;;;;;;;;;;;12.10;97.20;;;;;;5050916;28;20720;-94
2022/09/18 11:31:14;;;;;;;;;;;12.30;96.40;;;;;;5047981;28;19948;-93
2022/09/18 11:33:47;;;;;;;;;;;12.50;96.20;;;;;;5047617;28;20346;-92
2022/09/18 11:36:14;;;;;;;;;;;12.60;97.20;;;;;;5048988;28;20426;-92
2022/09/18 11:38:41;;;;;;;;;;;12.30;97.40;;;;;;5057249;28;19973;-94
2022/09/18 11:41:07;;;;;;;;;;;12.10;96.00;;;;;;5048153;28;19974;-90
2022/09/18 11:43:34;;;;;;;;;;;12.00;96.30;;;;;;5043083;28;19967;-82
2022/09/18 11:46:09;;;;;;;;;;;12.10;96.60;;;;;;5044898;28;20013;-80
2022/09/18 11:48:34;;;;;;;;;;;12.30;97.50;;;;;;5046117;28;19931;-89
2022/09/18 11:51:02;;;;;;;;;;;12.50;96.80;;;;;;5037720;28;19917;-83
2022/09/18 11:53:30;;;;;;;;;;;12.60;97.90;;;;;;5035727;28;19967;-83
2022/09/18 11:55:59;;;;;;;;;;;12.30;94.40;;;;;;5040256;28;19917;-85
2022/09/18 11:58:27;;;;;;;;;;;12.30;92.70;;;;;;5033981;28;19912;-79
2022/09/18 12:00:57;;;;;;;;;;;12.20;94.10;;;;;;5050443;28;19923;-79
2022/09/18 12:03:28;;;;;;;;;;;12.00;93.50;;;;;;5048614;28;19912;-79
2022/09/18 12:05:56;;;;;;;;;;;11.80;93.10;;;;;;5043440;28;20308;-79
2022/09/18 12:08:34;;;;;;;;;;;12.00;92.60;;;;;;5047831;28;19923;-80
2022/09/18 12:10:59;;;;;;;;;;;12.00;92.90;;;;;;5049740;28;19935;-80
2022/09/18 12:13:35;;;;;;;;;;;11.90;93.80;;;;;;5046290;28;19909;-80
2022/09/18 12:16:21;;;;;;;;;;;12.00;95.40;;;;;;5048326;28;19923;-80
2022/09/18 12:18:58;;;;;;;;;;;12.10;92.60;;;;;;5017690;28;19995;-79
2022/09/18 12:21:31;;;;;;;;;;;11.90;94.10;;;;;;5046157;28;19912;-79
2022/09/18 12:23:57;;;;;;;;;;;12.20;92.30;;;;;;5045613;28;19940;-80
2022/09/18 12:26:44;;;;;;;;;;;12.30;92.00;;;;;;5043993;28;20376;-79
2022/09/18 12:29:24;;;;;;;;;;;13.00;93.20;;;;;;5032318;28;19963;-79
2022/09/18 12:32:18;;;;;;;;;;;13.70;88.00;;;;;;5040856;28;20414;-79
2022/09/18 12:34:54;;;;;;;;;;;14.60;83.80;;;;;;5029045;28;19916;-79
2022/09/18 12:37:28;;;;;;;;;;;14.70;80.10;;;;;;5045749;28;19970;-79
2022/09/18 12:40:12;;;;;;;;;;;14.80;74.20;;;;;;5045017;28;19975;-79
2022/09/18 12:42:56;;;;;;;;;;;14.80;76.30;;;;;;5044901;28;20369;-78
2022/09/18 12:45:40;;;;;;;;;;;15.60;69.10;;;;;;5048292;28;20479;-78
2022/09/18 12:48:32;;;;;;;;;;;15.70;74.60;;;;;;5049771;28;19913;-78
2022/09/18 12:51:16;;;;;;;;;;;15.80;68.80;;;;;;5042721;28;19909;-79
2022/09/18 12:53:45;;;;;;;;;;;15.60;66.00;;;;;;5047411;28;19947;-79
2022/09/18 12:56:22;;;;;;;;;;;15.20;66.40;;;;;;5044987;28;19912;-79
2022/09/18 12:58:47;;;;;;;;;;;14.50;70.00;;;;;;5040291;28;19913;-78
2022/09/18 13:01:34;;;;;;;;;;;14.20;74.00;;;;;;5045167;28;19932;-78
2022/09/18 13:04:04;;;;;;;;;;;14.50;74.10;;;;;;5037280;28;19944;-78
2022/09/18 13:06:32;;;;;;;;;;;14.40;71.80;;;;;;5046629;28;20004;-78
2022/09/18 13:09:01;;;;;;;;;;;14.20;69.20;;;;;;5037656;28;19999;-78
2022/09/18 13:11:32;;;;;;;;;;;13.90;73.20;;;;;;5046040;28;19912;-80
2022/09/18 13:14:01;;;;;;;;;;;13.80;73.00;;;;;;5037576;28;19958;-78
2022/09/18 13:16:26;;;;;;;;;;;14.30;68.90;;;;;;5044513;28;19997;-78
2022/09/18 13:18:54;;;;;;;;;;;14.50;72.70;;;;;;5039523;28;20059;-81
2022/09/18 13:21:28;;;;;;;;;;;14.20;71.00;;;;;;5039389;28;19913;-80
2022/09/18 13:23:54;;;;;;;;;;;14.20;72.90;;;;;;5035692;28;20496;-78
2022/09/18 13:26:20;;;;;;;;;;;14.30;71.30;;;;;;5046842;28;19996;-78
2022/09/18 13:28:46;;;;;;;;;;;14.20;72.90;;;;;;5043360;28;19917;-78
2022/09/18 13:31:16;;;;;;;;;;;14.40;71.90;;;;;;5048288;28;19920;-80
2022/09/18 13:33:49;;;;;;;;;;;14.40;71.50;;;;;;5046152;28;19909;-78
2022/09/18 13:36:27;;;;;;;;;;;14.80;69.90;;;;;;5047688;28;19940;-78
2022/09/18 13:38:53;;;;;;;;;;;15.90;68.00;;;;;;5045653;28;19917;-79
2022/09/18 13:41:19;;;;;;;;;;;16.20;62.80;;;;;;5056595;28;19956;-80
2022/09/18 13:43:49;;;;;;;;;;;15.50;60.90;;;;;;5042869;28;19952;-78
2022/09/18 13:46:28;;;;;;;;;;;15.20;65.70;;;;;;5050077;28;19909;-79
2022/09/18 13:48:55;;;;;;;;;;;14.90;65.90;;;;;;5049889;28;19944;-79
2022/09/18 13:51:35;;;;;;;;;;;15.30;67.10;;;;;;5054331;28;19937;-79
2022/09/18 13:54:09;;;;;;;;;;;18.50;57.00;;;;;;5037789;28;19913;-80
2022/09/18 13:57:14;;;;;;;;;;;19.70;49.50;;;;;;5036240;28;20348;-79
2022/09/18 13:59:42;;;;;;;;;;;20.10;47.50;;;;;;4987283;28;20009;-79
2022/09/18 14:02:21;;;;;;;;;;;19.40;47.00;;;;;;4985530;28;20381;-79
2022/09/18 14:04:49;;;;;;;;;;;20.00;48.40;;;;;;4998469;28;19909;-79
2022/09/18 14:07:17;;;;;;;;;;;18.40;48.70;;;;;;5017090;28;20000;-80
2022/09/18 14:09:57;;;;;;;;;;;16.90;52.10;;;;;;5020132;28;19920;-79
2022/09/18 14:12:23;;;;;;;;;;;17.20;54.90;;;;;;5010078;28;19917;-79
2022/09/18 14:15:16;;;;;;;;;;;17.40;59.00;;;;;;5006018;28;19917;-81
2022/09/18 14:17:47;;;;;;;;;;;16.80;54.40;;;;;;5010931;28;19913;-83
2022/09/18 14:20:17;;;;;;;;;;;15.90;58.30;;;;;;5017293;28;20159;-82
2022/09/18 14:22:43;;;;;;;;;;;15.40;64.90;;;;;;5017401;28;19913;-82
2022/09/18 14:25:09;;;;;;;;;;;15.40;60.80;;;;;;5013931;28;19913;-83
2022/09/18 14:27:40;;;;;;;;;;;15.10;64.00;;;;;;5016387;28;19905;-82
2022/09/18 14:30:15;;;;;;;;;;;14.90;61.10;;;;;;5015385;28;20236;-82
2022/09/18 14:32:43;;;;;;;;;;;14.70;65.00;;;;;;5014061;28;19917;-83
2022/09/18 14:35:22;;;;;;;;;;;14.80;62.80;;;;;;5007309;28;20321;-82